Time;durP1;ratioP1;P1;durP2;ratioP2;P2;SDS_P1;SDS_P2;PMS_P1;PMS_P2;Temp;Humidity;BMP_temperature;BMP_pressure;BME280_temperature;BME280_humidity;BME280_pressure;Samples;Min_cycle;Max_cycle;Signal;HPM_P1;HPM_P2
2022/03/28 00:01:27;;;;;;;10.20;4.80;;;;;;;4.13;47.51;101225.83;88277;1271;94234;-77
2022/03/28 00:03:37;;;;;;;12.30;5.40;;;;;;;4.13;47.77;101221.55;88304;1271;79116;-76
2022/03/28 00:05:46;;;;;;;9.80;4.80;;;;;;;4.12;47.66;101220.93;88338;1271;80381;-71
2022/03/28 00:07:59;;;;;;;10.70;5.60;;;;;;;4.07;47.59;101219.91;88298;1271;97446;-71
2022/03/28 00:10:09;;;;;;;11.10;4.80;;;;;;;4.04;47.80;101214.63;88345;1271;89223;-71
2022/03/28 00:12:18;;;;;;;9.90;5.30;;;;;;;4.03;47.82;101206.50;88218;1275;95200;-70
2022/03/28 00:14:27;;;;;;;11.20;5.30;;;;;;;4.03;47.87;101207.08;88296;1271;77930;-71
2022/03/28 00:16:36;;;;;;;9.40;4.50;;;;;;;4.04;47.80;101204.80;88314;1271;80476;-72
2022/03/28 00:18:45;;;;;;;8.00;4.40;;;;;;;4.05;48.01;101202.99;88289;1271;97393;-70
2022/03/28 00:20:55;;;;;;;10.90;5.30;;;;;;;4.04;47.92;101197.33;88293;1271;88383;-76
2022/03/28 00:23:04;;;;;;;10.40;5.50;;;;;;;4.05;47.98;101189.44;88274;1271;95202;-77
2022/03/28 00:25:15;;;;;;;11.10;5.30;;;;;;;4.05;47.89;101186.23;88305;1271;79035;-71
2022/03/28 00:27:23;;;;;;;11.00;5.10;;;;;;;4.04;48.03;101186.81;88260;1274;82574;-72
2022/03/28 00:29:32;;;;;;;10.70;4.40;;;;;;;4.06;48.03;101176.55;88278;1271;97750;-72
2022/03/28 00:31:44;;;;;;;12.40;5.10;;;;;;;4.08;47.99;101178.48;88323;1271;89472;-72
2022/03/28 00:33:53;;;;;;;10.00;5.00;;;;;;;4.05;48.05;101177.98;88301;1271;95236;-70
2022/03/28 00:36:03;;;;;;;10.40;4.90;;;;;;;4.06;48.17;101173.46;88251;1274;78849;-77
2022/03/28 00:38:12;;;;;;;10.60;5.20;;;;;;;4.07;48.09;101169.09;88288;1274;80028;-76
2022/03/28 00:40:23;;;;;;;10.20;4.70;;;;;;;4.06;48.03;101163.11;88261;1271;99623;-71
2022/03/28 00:42:33;;;;;;;9.90;4.60;;;;;;;4.06;48.06;101161.52;88307;1271;88795;-72
2022/03/28 00:44:42;;;;;;;10.30;4.60;;;;;;;4.05;48.04;101159.30;88277;1274;94755;-72
2022/03/28 00:46:51;;;;;;;9.90;4.50;;;;;;;4.03;48.05;101160.21;88305;1271;78336;-73
2022/03/28 00:48:59;;;;;;;10.00;4.40;;;;;;;4.00;48.02;101155.98;88304;1271;81956;-72
2022/03/28 00:51:09;;;;;;;9.50;4.80;;;;;;;3.98;48.10;101155.84;88323;1271;97843;-76
2022/03/28 00:53:19;;;;;;;9.80;4.70;;;;;;;3.97;48.10;101153.19;88302;1271;88726;-76
2022/03/28 00:55:29;;;;;;;8.60;4.70;;;;;;;3.98;48.11;101147.23;88289;1271;95826;-76
2022/03/28 00:57:39;;;;;;;10.40;5.20;;;;;;;3.97;48.15;101146.03;88297;1271;77784;-77
2022/03/28 00:59:47;;;;;;;8.70;4.90;;;;;;;3.96;48.25;101140.34;88303;1271;80788;-76
2022/03/28 01:01:56;;;;;;;11.70;5.20;;;;;;;3.94;48.34;101136.21;88293;1271;97119;-77
2022/03/28 01:04:06;;;;;;;9.90;4.90;;;;;;;3.94;48.55;101129.92;88284;1271;88800;-77
2022/03/28 01:06:16;;;;;;;10.60;5.70;;;;;;;3.95;48.41;101122.61;88308;1271;95051;-77
2022/03/28 01:08:25;;;;;;;9.40;5.00;;;;;;;3.93;48.48;101119.20;88278;1271;78480;-76
2022/03/28 01:10:34;;;;;;;9.80;5.10;;;;;;;3.90;48.51;101111.89;88266;1274;81955;-77
2022/03/28 01:12:45;;;;;;;10.90;5.20;;;;;;;3.91;48.52;101104.39;88268;1274;100086;-77
2022/03/28 01:14:55;;;;;;;11.30;5.50;;;;;;;3.90;48.55;101097.70;88306;1271;87120;-76
2022/03/28 01:19:37;;;;;;;9.90;4.30;;;;;;;3.90;48.68;101092.38;88317;1271;78294;-78
2022/03/28 01:21:46;;;;;;;10.90;4.20;;;;;;;3.92;48.67;101093.05;88333;1271;82033;-75
2022/03/28 01:23:58;;;;;;;10.80;4.50;;;;;;;3.93;48.67;101088.52;88293;1271;97674;-76
2022/03/28 01:26:09;;;;;;;10.60;4.50;;;;;;;3.94;48.61;101084.15;88310;1271;87117;-74
2022/03/28 01:28:18;;;;;;;9.40;4.30;;;;;;;3.96;48.74;101081.65;88264;1271;93642;-74
2022/03/28 01:30:28;;;;;;;9.70;4.80;;;;;;;3.99;48.54;101077.14;88291;1271;77586;-73
2022/03/28 01:32:37;;;;;;;9.40;4.70;;;;;;;4.01;48.53;101075.50;88331;1271;82467;-74
2022/03/28 01:34:46;;;;;;;8.20;4.40;;;;;;;4.02;48.57;101071.21;88222;1274;98404;-73
2022/03/28 01:36:55;;;;;;;10.00;4.10;;;;;;;4.02;48.52;101069.88;88291;1271;89455;-75
2022/03/28 01:39:04;;;;;;;13.30;4.80;;;;;;;4.02;48.53;101065.44;88298;1271;95741;-78
2022/03/28 01:41:13;;;;;;;8.30;4.30;;;;;;;4.03;48.49;101068.05;88326;1271;79577;-73
2022/03/28 01:43:23;;;;;;;8.80;4.60;;;;;;;4.03;48.44;101064.66;88314;1271;80606;-73
2022/03/28 01:45:32;;;;;;;10.00;4.90;;;;;;;4.02;48.50;101057.13;88335;1271;98175;-76
2022/03/28 01:47:42;;;;;;;11.30;5.10;;;;;;;4.00;48.35;101056.55;88269;1271;88007;-76
2022/03/28 01:49:51;;;;;;;8.50;4.50;;;;;;;3.97;48.52;101051.27;88308;1271;93896;-76
2022/03/28 01:52:03;;;;;;;9.10;4.50;;;;;;;3.95;48.50;101048.59;88316;1271;77911;-77
2022/03/28 01:54:13;;;;;;;8.90;4.90;;;;;;;3.92;48.62;101044.58;88317;1271;81649;-77
2022/03/28 01:56:21;;;;;;;7.80;4.10;;;;;;;3.94;48.72;101046.05;88314;1271;99225;-73
2022/03/28 01:58:30;;;;;;;10.50;4.90;;;;;;;3.93;48.74;101040.89;88217;1273;89088;-72
2022/03/28 02:00:40;;;;;;;9.80;4.70;;;;;;;3.90;48.51;101039.39;88276;1271;95747;-73
2022/03/28 02:02:48;;;;;;;10.40;4.90;;;;;;;3.86;48.65;101036.54;88300;1271;77846;-72
2022/03/28 02:05:01;;;;;;;9.60;4.70;;;;;;;3.81;48.63;101034.48;88297;1271;82469;-71
2022/03/28 02:07:12;;;;;;;8.30;4.30;;;;;;;3.77;48.77;101032.18;88250;1274;97349;-73
2022/03/28 02:09:21;;;;;;;9.60;4.70;;;;;;;3.73;48.76;101029.33;88280;1273;89444;-72
2022/03/28 02:11:34;;;;;;;8.70;4.20;;;;;;;3.69;48.81;101028.78;88287;1271;92071;-72
2022/03/28 02:13:43;;;;;;;9.80;4.90;;;;;;;3.65;48.95;101026.85;88279;1271;78942;-72
2022/03/28 02:15:52;;;;;;;12.10;5.40;;;;;;;3.61;49.06;101028.21;88323;1271;80744;-72
2022/03/28 02:18:01;;;;;;;11.80;5.40;;;;;;;3.57;49.08;101024.48;88309;1271;98034;-71
2022/03/28 02:20:16;;;;;;;7.20;4.40;;;;;;;3.54;49.02;101027.20;88302;1271;89592;-76
2022/03/28 02:22:25;;;;;;;8.60;4.40;;;;;;;3.48;49.23;101024.31;88232;1274;96135;-77
2022/03/28 02:24:34;;;;;;;10.60;4.70;;;;;;;3.44;49.30;101021.30;88310;1271;77671;-76
2022/03/28 02:26:46;;;;;;;8.40;4.30;;;;;;;3.43;49.42;101022.08;88330;1271;80981;-72
2022/03/28 02:28:55;;;;;;;10.40;4.60;;;;;;;3.41;49.49;101017.45;88311;1271;98637;-71
2022/03/28 02:31:04;;;;;;;8.00;5.00;;;;;;;3.41;49.59;101017.96;88306;1271;88732;-75
2022/03/28 02:33:13;;;;;;;10.70;5.00;;;;;;;3.41;49.58;101016.21;88295;1271;93088;-76
2022/03/28 02:35:22;;;;;;;10.50;4.70;;;;;;;3.41;49.73;101013.85;88307;1271;76272;-77
2022/03/28 02:37:31;;;;;;;10.60;4.70;;;;;;;3.41;49.75;101016.18;88235;1274;81709;-77
2022/03/28 02:39:39;;;;;;;11.00;5.50;;;;;;;3.40;49.72;101013.80;88310;1271;97647;-76
2022/03/28 02:41:48;;;;;;;9.10;4.30;;;;;;;3.41;49.88;101017.80;88319;1271;88954;-69
2022/03/28 02:43:57;;;;;;;9.60;4.90;;;;;;;3.43;50.15;101014.42;88287;1271;95388;-71
2022/03/28 02:46:09;;;;;;;10.00;4.70;;;;;;;3.44;50.10;101015.73;88299;1271;79653;-77
2022/03/28 02:48:18;;;;;;;11.60;5.20;;;;;;;3.43;50.04;101012.84;88319;1271;83241;-76
2022/03/28 02:50:27;;;;;;;12.20;4.90;;;;;;;3.43;50.13;101015.30;88312;1271;98528;-72
2022/03/28 02:52:36;;;;;;;10.10;4.90;;;;;;;3.43;50.18;101011.23;88334;1271;87029;-72
2022/03/28 02:54:46;;;;;;;10.00;4.90;;;;;;;3.42;50.24;101003.85;88313;1271;93055;-72
2022/03/28 02:56:56;;;;;;;11.10;5.10;;;;;;;3.40;50.31;100999.35;88246;1273;78827;-76
2022/03/28 02:59:05;;;;;;;10.20;4.50;;;;;;;3.40;50.35;100996.17;88198;1274;82327;-77
2022/03/28 03:01:14;;;;;;;10.40;4.70;;;;;;;3.41;50.48;100995.25;88261;1273;99620;-72
2022/03/28 03:03:23;;;;;;;13.70;4.90;;;;;;;3.40;50.39;100992.09;88230;1274;88450;-72
2022/03/28 03:05:32;;;;;;;12.60;5.80;;;;;;;3.37;50.32;100992.15;88206;1274;95729;-74
2022/03/28 03:07:42;;;;;;;8.20;5.00;;;;;;;3.35;50.56;100991.24;88248;1273;77384;-73
2022/03/28 03:09:52;;;;;;;11.00;5.00;;;;;;;3.35;50.52;100992.19;88258;1273;82380;-73
2022/03/28 03:12:04;;;;;;;9.20;5.00;;;;;;;3.32;50.58;100992.40;88260;1273;98341;-74
2022/03/28 03:14:14;;;;;;;8.30;5.10;;;;;;;3.30;50.65;100991.47;88269;1273;89085;-72
2022/03/28 03:16:23;;;;;;;11.00;5.20;;;;;;;3.28;50.73;100987.02;88266;1273;95314;-70
2022/03/28 03:18:32;;;;;;;11.00;5.10;;;;;;;3.26;50.75;100985.97;88257;1272;76233;-71
2022/03/28 03:20:41;;;;;;;9.10;4.40;;;;;;;3.24;50.85;100980.30;88236;1273;80782;-72
2022/03/28 03:22:49;;;;;;;11.00;5.20;;;;;;;3.22;50.79;100982.56;88245;1273;98600;-72
2022/03/28 03:25:01;;;;;;;7.80;4.30;;;;;;;3.20;50.93;100981.86;88258;1273;87497;-76
2022/03/28 03:27:11;;;;;;;12.10;5.40;;;;;;;3.18;50.97;100980.76;88228;1273;96144;-73
2022/03/28 03:29:19;;;;;;;9.50;4.80;;;;;;;3.15;50.99;100979.08;88261;1273;77905;-73
2022/03/28 03:31:28;;;;;;;8.60;4.40;;;;;;;3.11;51.03;100981.54;88264;1273;82950;-73
2022/03/28 03:33:37;;;;;;;7.40;4.60;;;;;;;3.08;51.14;100976.69;88237;1272;99012;-74
2022/03/28 03:35:46;;;;;;;9.60;5.10;;;;;;;3.05;51.16;100971.91;88224;1273;87659;-73
2022/03/28 03:37:57;;;;;;;9.30;5.10;;;;;;;3.02;51.36;100969.30;88214;1274;96333;-74
2022/03/28 03:40:09;;;;;;;11.20;5.40;;;;;;;3.00;51.44;100962.53;88224;1272;79021;-74
2022/03/28 03:42:21;;;;;;;13.80;6.10;;;;;;;2.99;51.55;100966.71;88253;1273;83401;-70
2022/03/28 03:44:30;;;;;;;11.60;5.60;;;;;;;2.99;51.74;100965.68;88232;1273;99362;-75
2022/03/28 03:46:39;;;;;;;12.50;5.70;;;;;;;2.99;51.80;100962.76;88223;1273;88779;-77
2022/03/28 03:48:47;;;;;;;13.30;6.00;;;;;;;2.96;51.72;100954.84;88209;1274;92931;-78
2022/03/28 03:51:00;;;;;;;10.30;5.20;;;;;;;2.94;51.99;100953.77;88265;1273;80048;-73
2022/03/28 03:53:09;;;;;;;11.10;5.60;;;;;;;2.94;52.17;100952.89;88251;1272;81349;-73
2022/03/28 03:55:21;;;;;;;9.80;5.10;;;;;;;2.96;52.55;100943.31;88232;1273;99554;-78
2022/03/28 03:57:29;;;;;;;10.80;5.30;;;;;;;2.97;52.41;100945.32;88240;1273;88283;-77
2022/03/28 03:59:39;;;;;;;11.20;5.00;;;;;;;2.95;52.27;100937.48;88205;1273;94645;-77
2022/03/28 04:01:49;;;;;;;11.80;6.30;;;;;;;2.94;52.52;100942.06;88265;1273;78365;-74
2022/03/28 04:03:58;;;;;;;12.00;5.80;;;;;;;2.93;52.34;100938.42;88235;1272;81606;-74
2022/03/28 04:06:10;;;;;;;11.20;5.60;;;;;;;2.91;52.37;100936.42;88244;1273;98304;-73
2022/03/28 04:08:19;;;;;;;9.10;5.20;;;;;;;2.87;52.48;100933.95;88233;1272;89234;-73
2022/03/28 04:10:27;;;;;;;10.50;6.60;;;;;;;2.84;52.59;100926.48;88255;1273;93111;-75
2022/03/28 04:12:40;;;;;;;11.60;5.70;;;;;;;2.85;52.76;100925.59;88205;1274;77114;-74
2022/03/28 04:14:53;;;;;;;11.50;5.00;;;;;;;2.84;52.82;100925.80;88247;1273;82571;-75
2022/03/28 04:17:01;;;;;;;;;;;;;;;2.82;52.71;100920.80;88275;1273;98630;-75
2022/03/28 04:19:10;;;;;;;9.10;5.50;;;;;;;2.81;52.92;100915.23;88248;1273;87744;-74
2022/03/28 04:21:18;;;;;;;9.80;5.10;;;;;;;2.79;52.90;100919.61;88209;1272;95353;-73
2022/03/28 04:23:28;;;;;;;11.40;5.50;;;;;;;2.77;52.92;100916.05;88233;1273;79573;-75
2022/03/28 04:25:37;;;;;;;11.30;5.10;;;;;;;2.76;52.90;100921.30;88276;1273;79471;-76
2022/03/28 04:27:49;;;;;;;9.30;5.30;;;;;;;2.76;53.00;100921.71;88234;1273;97462;-76
2022/03/28 04:29:58;;;;;;;12.80;6.00;;;;;;;2.75;53.02;100922.83;88231;1273;88496;-76
2022/03/28 04:32:08;;;;;;;12.00;5.80;;;;;;;2.75;52.96;100920.13;88244;1273;94704;-73
2022/03/28 04:34:18;;;;;;;11.80;5.80;;;;;;;2.77;53.13;100913.02;88278;1273;76527;-75
2022/03/28 04:36:28;;;;;;;11.60;5.30;;;;;;;2.82;53.27;100906.62;88234;1273;83931;-76
2022/03/28 04:38:37;;;;;;;11.10;5.90;;;;;;;2.86;53.36;100907.29;88237;1272;96217;-73
2022/03/28 04:40:46;;;;;;;11.80;5.80;;;;;;;2.90;53.31;100906.41;88274;1273;89526;-72
2022/03/28 04:42:55;;;;;;;13.00;6.20;;;;;;;2.96;53.37;100905.02;88255;1273;95005;-72
2022/03/28 04:45:06;;;;;;;12.00;6.20;;;;;;;3.05;53.44;100902.94;88231;1273;77681;-72
2022/03/28 04:47:15;;;;;;;13.90;6.30;;;;;;;3.11;53.48;100897.76;88233;1274;82470;-73
2022/03/28 04:49:24;;;;;;;12.20;6.30;;;;;;;3.19;53.70;100898.13;88253;1273;97430;-69
2022/03/28 04:51:36;;;;;;;11.40;6.30;;;;;;;3.26;53.64;100893.56;88216;1274;88345;-70
2022/03/28 04:53:46;;;;;;;12.20;6.30;;;;;;;3.34;53.55;100891.11;88244;1272;94646;-69
2022/03/28 04:55:54;;;;;;;9.20;5.70;;;;;;;3.41;53.79;100887.78;88165;1274;77531;-74
2022/03/28 04:58:05;;;;;;;12.50;6.10;;;;;;;3.50;53.70;100886.32;88253;1273;82121;-74
2022/03/28 05:00:17;;;;;;;13.30;6.10;;;;;;;3.60;53.57;100885.48;88229;1272;97928;-72
2022/03/28 05:02:26;;;;;;;11.90;6.00;;;;;;;3.70;53.59;100879.75;88258;1273;86831;-76
2022/03/28 05:04:35;;;;;;;12.70;6.40;;;;;;;3.88;53.63;100885.34;88228;1273;93016;-77
2022/03/28 05:06:44;;;;;;;11.00;5.70;;;;;;;4.33;53.36;100884.64;88179;1271;77523;-69
2022/03/28 05:08:53;;;;;;;12.10;7.00;;;;;;;4.83;53.10;100879.14;88209;1273;80978;-70
2022/03/28 05:11:02;;;;;;;13.70;6.90;;;;;;;5.25;52.37;100879.68;88252;1273;96691;-77
2022/03/28 05:13:12;;;;;;;12.30;6.90;;;;;;;5.96;52.03;100872.51;88282;1273;89122;-80
2022/03/28 05:15:22;;;;;;;14.30;7.10;;;;;;;7.04;51.39;100867.36;88362;1272;93791;-70
2022/03/28 05:17:33;;;;;;;11.90;7.20;;;;;;;8.17;49.96;100863.48;88236;1274;78764;-72
2022/03/28 05:19:42;;;;;;;14.10;7.10;;;;;;;9.10;48.40;100862.85;88244;1274;81857;-70
2022/03/28 05:21:50;;;;;;;14.40;7.80;;;;;;;9.82;47.71;100861.16;88239;1273;97122;-67
2022/03/28 05:23:59;;;;;;;11.10;6.70;;;;;;;10.56;47.09;100856.02;88215;1273;88717;-70
2022/03/28 05:26:08;;;;;;;12.20;6.80;;;;;;;11.49;45.72;100852.88;88199;1273;95639;-72
2022/03/28 05:28:17;;;;;;;11.50;7.00;;;;;;;12.20;44.04;100849.57;88187;1274;78619;-70
2022/03/28 05:30:26;;;;;;;11.40;7.20;;;;;;;12.43;42.95;100849.39;88235;1273;80613;-79
2022/03/28 05:32:35;;;;;;;13.30;6.70;;;;;;;12.61;42.30;100845.35;88228;1272;98200;-80
2022/03/28 05:34:44;;;;;;;10.60;6.90;;;;;;;12.42;41.83;100848.38;88282;1273;87721;-69
2022/03/28 05:36:53;;;;;;;13.20;7.10;;;;;;;11.79;41.65;100858.98;88262;1273;93303;-74
2022/03/28 05:39:03;;;;;;;13.70;7.20;;;;;;;11.13;41.82;100854.83;88249;1273;79305;-74
2022/03/28 05:41:13;;;;;;;12.00;6.80;;;;;;;10.59;42.13;100858.39;88241;1274;81637;-70
2022/03/28 05:43:22;;;;;;;11.90;6.80;;;;;;;10.08;42.54;100857.48;88248;1273;100826;-71
2022/03/28 05:45:31;;;;;;;13.50;6.70;;;;;;;9.74;42.95;100863.83;88225;1273;87398;-71
2022/03/28 05:47:41;;;;;;;14.00;7.70;;;;;;;9.54;43.19;100866.91;88219;1272;95358;-72
2022/03/28 05:49:50;;;;;;;12.20;7.10;;;;;;;9.49;43.36;100861.31;88221;1272;78490;-72
2022/03/28 05:51:58;;;;;;;13.80;7.70;;;;;;;9.53;43.60;100867.85;88269;1272;82244;-71
2022/03/28 05:54:07;;;;;;;15.30;7.80;;;;;;;10.25;43.81;100857.98;88243;1272;96750;-73
2022/03/28 05:56:16;;;;;;;13.20;7.60;;;;;;;11.92;43.42;100861.87;88241;1272;89275;-75
2022/03/28 05:58:25;;;;;;;14.10;7.50;;;;;;;13.59;42.12;100852.02;88213;1273;95919;-73
2022/03/28 06:00:34;;;;;;;11.90;7.80;;;;;;;15.04;40.92;100846.68;88184;1273;79454;-72
2022/03/28 06:02:43;;;;;;;12.10;7.70;;;;;;;16.13;40.08;100848.08;88224;1273;81423;-71
2022/03/28 06:04:53;;;;;;;11.90;8.50;;;;;;;17.15;38.36;100839.52;88224;1273;97611;-71
2022/03/28 06:07:01;;;;;;;14.60;8.40;;;;;;;18.08;37.25;100838.89;88248;1273;88711;-70
2022/03/28 06:09:11;;;;;;;12.10;7.90;;;;;;;18.92;36.21;100836.02;88198;1274;95207;-71
2022/03/28 06:11:20;;;;;;;12.00;7.90;;;;;;;19.40;35.62;100831.86;88247;1273;78609;-74
2022/03/28 06:13:29;;;;;;;10.70;6.90;;;;;;;19.68;34.92;100833.65;88257;1272;82151;-75
2022/03/28 06:15:39;;;;;;;12.00;7.60;;;;;;;20.09;35.01;100829.92;88234;1273;99392;-68
2022/03/28 06:17:53;;;;;;;16.00;8.00;;;;;;;20.66;34.24;100828.84;88253;1272;86991;-72
2022/03/28 06:20:07;;;;;;;13.70;8.40;;;;;;;21.18;33.34;100822.20;88225;1274;95449;-73
2022/03/28 06:22:17;;;;;;;11.70;8.60;;;;;;;21.66;32.39;100820.30;88265;1273;78368;-75
2022/03/28 06:24:26;;;;;;;11.70;8.40;;;;;;;22.31;31.75;100815.69;88238;1273;83197;-74
2022/03/28 06:26:35;;;;;;;12.30;7.90;;;;;;;22.80;31.00;100814.58;88247;1272;97655;-71
2022/03/28 06:28:46;;;;;;;13.10;9.20;;;;;;;23.12;29.66;100809.11;88227;1272;88030;-71
2022/03/28 06:30:57;;;;;;;13.30;8.70;;;;;;;23.43;29.35;100808.83;88214;1273;95054;-75
2022/03/28 06:33:06;;;;;;;13.00;8.80;;;;;;;23.71;29.00;100806.30;88234;1273;79256;-75
2022/03/28 06:35:15;;;;;;;13.80;8.70;;;;;;;23.65;29.03;100809.19;88261;1273;82844;-71
2022/03/28 06:37:27;;;;;;;12.30;8.50;;;;;;;23.89;29.12;100805.14;88214;1272;98708;-72
2022/03/28 06:39:37;;;;;;;12.40;8.00;;;;;;;24.13;28.42;100808.34;88238;1272;88709;-72
2022/03/28 06:41:46;;;;;;;12.30;8.40;;;;;;;24.30;27.43;100805.93;88230;1272;95438;-70
2022/03/28 06:43:55;;;;;;;14.20;9.20;;;;;;;24.10;27.21;100803.94;88225;1273;78896;-71
2022/03/28 06:46:07;;;;;;;11.40;9.10;;;;;;;23.57;27.58;100796.05;88237;1273;81638;-75
2022/03/28 06:48:16;;;;;;;11.50;8.40;;;;;;;24.00;27.35;100792.18;88230;1273;98754;-74
2022/03/28 06:50:27;;;;;;;11.50;9.10;;;;;;;24.66;27.12;100789.44;88264;1272;87717;-69
2022/03/28 06:52:37;;;;;;;13.50;8.20;;;;;;;25.29;27.08;100781.39;88220;1272;93931;-71
2022/03/28 06:54:46;;;;;;;9.70;8.20;;;;;;;25.63;27.15;100784.05;88207;1273;78265;-71
2022/03/28 06:56:55;;;;;;;11.80;8.40;;;;;;;25.87;26.71;100784.13;88197;1274;82826;-71
2022/03/28 06:59:06;;;;;;;12.00;8.40;;;;;;;26.18;26.36;100782.92;88236;1272;98069;-70
2022/03/28 07:01:16;;;;;;;12.20;8.40;;;;;;;26.40;26.12;100771.98;88213;1273;87548;-70
2022/03/28 07:03:26;;;;;;;11.20;8.70;;;;;;;26.79;25.77;100769.09;88224;1272;93348;-69
2022/03/28 07:05:35;;;;;;;11.70;8.60;;;;;;;26.95;25.37;100768.50;88215;1273;78686;-69
2022/03/28 07:07:46;;;;;;;12.70;8.40;;;;;;;26.93;25.37;100768.18;88226;1272;82549;-70
2022/03/28 07:09:55;;;;;;;10.10;8.60;;;;;;;27.19;25.14;100766.09;88219;1273;99173;-71
2022/03/28 07:12:06;;;;;;;11.20;8.10;;;;;;;27.35;24.80;100765.02;88224;1272;89507;-74
2022/03/28 07:14:20;;;;;;;13.10;8.70;;;;;;;27.35;24.63;100757.26;88251;1273;95761;-74
2022/03/28 07:16:28;;;;;;;;;;;;;;;27.31;24.79;100756.16;88245;1273;79316;-73
2022/03/28 07:18:36;;;;;;;;;;;;;;;27.57;23.81;100753.96;86554;1273;3399363;-73
2022/03/28 07:20:46;;;;;;;11.70;8.90;;;;;;;28.04;23.62;100754.05;88154;1272;98587;-71
2022/03/28 07:23:00;;;;;;;11.10;8.90;;;;;;;28.31;23.46;100751.21;88233;1272;89737;-71
2022/03/28 07:25:11;;;;;;;11.60;8.30;;;;;;;28.49;23.39;100754.86;88250;1274;92348;-70
2022/03/28 07:27:20;;;;;;;11.20;8.20;;;;;;;28.45;23.86;100744.86;88213;1273;79423;-71
2022/03/28 07:29:29;;;;;;;10.50;8.20;;;;;;;28.67;23.47;100743.45;88272;1273;82217;-72
2022/03/28 07:31:41;;;;;;;11.60;8.70;;;;;;;28.70;23.60;100744.67;88232;1274;98837;-70
2022/03/28 07:33:50;;;;;;;11.10;8.20;;;;;;;28.79;23.63;100740.05;88237;1272;86858;-70
2022/03/28 07:35:59;;;;;;;10.40;8.20;;;;;;;28.77;23.96;100742.91;88196;1274;94104;-70
2022/03/28 07:38:10;;;;;;;11.20;8.10;;;;;;;29.12;23.55;100726.75;88190;1273;79378;-69
2022/03/28 07:40:20;;;;;;;11.00;7.90;;;;;;;29.23;22.71;100726.27;88226;1273;82154;-72
2022/03/28 07:42:29;;;;;;;11.90;8.50;;;;;;;29.32;22.50;100725.45;88221;1272;98429;-73
2022/03/28 07:44:38;;;;;;;13.40;8.60;;;;;;;29.17;23.05;100727.20;88219;1273;89546;-73
2022/03/28 07:46:50;;;;;;;11.20;8.40;;;;;;;28.84;23.05;100725.94;88236;1273;94333;-70
2022/03/28 07:48:59;;;;;;;13.70;8.30;;;;;;;28.68;23.23;100720.53;88231;1273;80451;-69
2022/03/28 07:51:12;;;;;;;10.20;9.00;;;;;;;28.74;22.55;100717.00;88239;1274;80630;-73
2022/03/28 07:53:21;;;;;;;9.90;8.60;;;;;;;28.99;23.03;100707.29;88221;1273;99078;-73
2022/03/28 07:55:30;;;;;;;9.80;8.00;;;;;;;29.34;22.52;100707.30;88264;1273;89322;-69
2022/03/28 07:57:40;;;;;;;13.50;9.00;;;;;;;29.65;22.04;100701.71;88235;1273;94377;-70
2022/03/28 07:59:52;;;;;;;11.40;8.60;;;;;;;29.70;21.95;100696.38;88161;1274;78678;-70
2022/03/28 08:02:08;;;;;;;12.20;8.80;;;;;;;29.65;21.11;100689.28;88244;1273;82097;-69
2022/03/28 08:04:17;;;;;;;12.70;8.00;;;;;;;29.57;21.44;100681.38;88230;1273;97288;-71
2022/03/28 08:06:30;;;;;;;11.70;8.20;;;;;;;29.43;21.85;100683.50;88246;1272;89530;-69
2022/03/28 08:08:43;;;;;;;14.00;8.60;;;;;;;29.50;22.62;100679.83;88227;1273;95577;-70
2022/03/28 08:10:53;;;;;;;11.50;7.90;;;;;;;30.05;22.84;100673.42;88202;1273;79738;-74
2022/03/28 08:13:02;;;;;;;11.60;8.80;;;;;;;30.46;21.89;100667.39;88252;1273;80747;-73
2022/03/28 08:15:14;;;;;;;12.50;8.50;;;;;;;30.42;21.75;100664.10;88249;1272;99085;-73
2022/03/28 08:17:26;;;;;;;11.80;7.80;;;;;;;30.55;22.07;100658.70;88232;1272;89765;-73
2022/03/28 08:19:36;;;;;;;12.00;7.60;;;;;;;30.85;22.05;100652.09;88202;1272;93351;-72
2022/03/28 08:21:49;;;;;;;11.50;8.00;;;;;;;30.88;21.55;100651.42;88218;1274;79068;-69
2022/03/28 08:23:58;;;;;;;11.50;7.70;;;;;;;30.61;22.02;100651.38;88247;1272;80567;-70
2022/03/28 08:26:08;;;;;;;12.70;7.70;;;;;;;30.56;22.28;100650.31;88221;1273;98141;-73
2022/03/28 08:28:20;;;;;;;11.80;7.20;;;;;;;30.50;22.37;100650.08;88211;1273;89541;-73
2022/03/28 08:30:30;;;;;;;15.20;8.40;;;;;;;30.63;21.71;100641.45;88250;1273;95617;-69
2022/03/28 08:32:40;;;;;;;15.10;7.90;;;;;;;30.41;21.50;100640.86;88205;1273;78633;-69
2022/03/28 08:34:56;;;;;;;13.80;7.70;;;;;;;30.28;21.52;100639.36;88265;1272;81184;-69
2022/03/28 08:37:06;;;;;;;13.50;7.60;;;;;;;30.45;21.83;100640.80;88209;1272;96696;-72
2022/03/28 08:39:15;;;;;;;13.50;7.00;;;;;;;30.78;21.94;100637.83;88228;1273;86466;-72
2022/03/28 08:41:27;;;;;;;14.80;7.50;;;;;;;30.91;21.65;100632.64;88216;1273;96013;-72
2022/03/28 08:43:36;;;;;;;14.80;8.10;;;;;;;31.04;21.49;100629.77;88209;1272;78405;-72
2022/03/28 08:45:46;;;;;;;12.60;7.70;;;;;;;31.04;21.34;100630.52;88225;1272;82478;-72
2022/03/28 08:47:58;;;;;;;16.50;7.20;;;;;;;30.59;21.10;100626.52;88219;1272;98685;-72
2022/03/28 08:50:07;;;;;;;;;;;;;;;30.33;21.44;100629.81;88262;1272;89249;-69
2022/03/28 08:52:17;;;;;;;17.20;7.10;;;;;;;30.25;21.31;100622.15;88213;1272;95582;-70
2022/03/28 08:54:25;;;;;;;10.50;7.00;;;;;;;30.26;21.23;100617.72;88235;1272;79835;-69
2022/03/28 08:56:34;;;;;;;14.80;8.40;;;;;;;30.15;20.77;100616.48;88229;1272;83364;-73
2022/03/28 08:58:47;;;;;;;12.30;7.40;;;;;;;29.86;21.07;100615.96;88221;1273;97924;-71
2022/03/28 09:00:56;;;;;;;12.50;6.70;;;;;;;29.85;21.26;100616.15;88218;1273;89695;-72
2022/03/28 09:03:05;;;;;;;11.90;7.20;;;;;;;29.99;21.49;100618.95;88240;1273;95404;-72
2022/03/28 09:05:15;;;;;;;9.40;6.80;;;;;;;30.03;20.92;100608.63;88207;1272;80128;-71
2022/03/28 09:07:31;;;;;;;13.40;7.40;;;;;;;29.56;21.19;100607.28;88231;1273;81390;-73
2022/03/28 09:09:41;;;;;;;10.90;6.90;;;;;;;29.28;21.74;100605.39;88216;1272;98664;-74
2022/03/28 09:11:56;;;;;;;15.60;6.80;;;;;;;29.35;21.98;100601.29;88250;1272;89348;-73
2022/03/28 09:14:05;;;;;;;11.60;6.60;;;;;;;29.69;21.69;100601.20;88218;1273;95264;-72
2022/03/28 09:16:20;;;;;;;10.40;7.40;;;;;;;29.45;21.71;100598.30;88242;1272;80113;-71
2022/03/28 09:18:32;;;;;;;12.50;6.40;;;;;;;29.49;21.33;100596.09;88240;1273;80853;-71
2022/03/28 09:20:48;;;;;;;11.90;5.60;;;;;;;29.54;20.93;100587.80;88255;1273;98844;-68
2022/03/28 09:22:57;;;;;;;9.50;5.90;;;;;;;29.53;20.53;100591.73;88243;1272;89635;-75
2022/03/28 09:25:10;;;;;;;12.00;5.90;;;;;;;29.05;20.22;100586.83;88227;1270;95864;-70
2022/03/28 09:27:23;;;;;;;11.40;6.30;;;;;;;28.82;20.46;100582.14;88227;1272;77533;-69
2022/03/28 09:29:32;;;;;;;10.80;5.90;;;;;;;28.61;20.74;100585.27;88239;1273;81896;-70
2022/03/28 09:31:43;;;;;;;11.30;7.00;;;;;;;28.55;20.79;100578.41;88193;1272;98184;-72
2022/03/28 09:34:04;;;;;;;9.20;6.10;;;;;;;28.45;20.85;100578.24;88223;1272;88347;-72
2022/03/28 09:36:13;;;;;;;10.80;6.50;;;;;;;28.24;20.74;100572.90;88259;1272;95216;-69
2022/03/28 09:38:25;;;;;;;13.30;5.80;;;;;;;28.06;21.19;100573.34;88220;1273;78644;-68
2022/03/28 09:40:38;;;;;;;12.30;6.70;;;;;;;27.88;21.07;100570.27;88209;1273;82624;-71
2022/03/28 09:42:56;;;;;;;12.90;6.40;;;;;;;27.34;21.37;100573.56;88235;1272;99129;-71
2022/03/28 09:45:22;;;;;;;10.10;5.90;;;;;;;26.77;21.85;100563.69;88254;1273;85786;-67
2022/03/28 09:47:31;;;;;;;10.60;6.10;;;;;;;26.34;22.20;100560.06;88246;1273;92838;-70
2022/03/28 09:49:43;;;;;;;10.70;6.90;;;;;;;25.75;22.61;100553.20;88230;1273;79199;-69
2022/03/28 09:52:05;;;;;;;11.70;5.90;;;;;;;25.31;22.83;100556.33;88228;1273;83386;-72
2022/03/28 09:54:26;;;;;;;11.00;6.60;;;;;;;24.82;23.43;100554.11;88226;1273;99871;-72
2022/03/28 09:56:37;;;;;;;9.60;6.20;;;;;;;24.45;23.70;100544.25;88255;1273;87267;-75
2022/03/28 09:58:49;;;;;;;9.30;5.60;;;;;;;24.02;23.92;100542.61;88221;1272;95753;-75
2022/03/28 10:01:02;;;;;;;8.70;5.70;;;;;;;23.65;24.18;100537.52;88257;1273;79272;-75
2022/03/28 10:03:13;;;;;;;;;;;;;;;23.27;24.39;100544.52;88240;1272;82524;-71
2022/03/28 10:05:22;;;;;;;11.30;6.00;;;;;;;23.08;24.68;100550.16;88199;1274;99582;-69
2022/03/28 10:07:35;;;;;;;13.30;6.10;;;;;;;23.03;24.83;100539.38;88205;1274;88968;-69